Daviess County Airport


Codes: KDCY/
Name: Daviess County Airport
City: Washington
Country: United States
Elevation: 473 ft.

Photos at Daviess County Airport


   Photos courtesy of SpottingLog. You can add your own sightings and photos by signing up for a free trial today.



No photos found.

Weather at Daviess County Airport


Time (UTC)DescriptionTempratureWindCloud coverageVisibilityPressureHumidity
21-Feb-2024 03:00Clear Sky7°C7 mph, S1%10000m1023hPa60%
21-Feb-2024 06:00Clear Sky6°C9 mph, S3%10000m1023hPa68%
21-Feb-2024 09:00Clear Sky5°C7 mph, S7%10000m1022hPa78%
21-Feb-2024 12:00Clear Sky4°C9 mph, S6%10000m1022hPa82%
21-Feb-2024 15:00Broken Clouds9°C13 mph, S66%10000m1021hPa71%
21-Feb-2024 18:00Broken Clouds15°C16 mph, S81%10000m1019hPa61%
21-Feb-2024 21:00Overcast Clouds16°C13 mph, S100%10000m1015hPa61%
22-Feb-2024 00:00Overcast Clouds13°C13 mph, S100%10000m1013hPa75%
22-Feb-2024 03:00Overcast Clouds13°C18 mph, S100%10000m1012hPa79%
22-Feb-2024 06:00Overcast Clouds13°C16 mph, S100%10000m1010hPa85%
22-Feb-2024 09:00Light Rain13°C16 mph, S100%10000m1007hPa86%
22-Feb-2024 12:00Light Rain13°C16 mph, S100%10000m1005hPa90%
22-Feb-2024 15:00Moderate Rain13°C18 mph, SW100%10000m1004hPa92%
22-Feb-2024 18:00Light Rain13°C16 mph, SW100%10000m1002hPa92%
22-Feb-2024 21:00Moderate Rain13°C11 mph, W100%10000m1002hPa94%
23-Feb-2024 00:00Light Rain10°C9 mph, N85%10000m1005hPa86%
23-Feb-2024 03:00Scattered Clouds8°C7 mph, NW39%10000m1006hPa92%
23-Feb-2024 06:00Broken Clouds8°C7 mph, NW70%10000m1006hPa90%
23-Feb-2024 09:00Broken Clouds6°C7 mph, NW59%10000m1006hPa89%
23-Feb-2024 12:00Scattered Clouds5°C7 mph, NW31%10000m1008hPa93%
23-Feb-2024 15:00Clear Sky7°C11 mph, NW3%10000m1009hPa74%
23-Feb-2024 18:00Clear Sky11°C11 mph, NW3%10000m1009hPa51%
23-Feb-2024 21:00Clear Sky11°C13 mph, NW7%10000m1008hPa46%
24-Feb-2024 00:00Few Clouds7°C7 mph, NW12%10000m1009hPa63%
24-Feb-2024 03:00Scattered Clouds6°C7 mph, NW34%10000m1010hPa70%
24-Feb-2024 06:00Broken Clouds5°C4 mph, NW65%10000m1011hPa73%
24-Feb-2024 09:00Light Rain5°C7 mph, N100%10000m1012hPa81%
24-Feb-2024 12:00Overcast Clouds2°C11 mph, N100%10000m1015hPa89%
24-Feb-2024 15:00Overcast Clouds3°C11 mph, NE88%10000m1018hPa72%
24-Feb-2024 18:00Broken Clouds6°C9 mph, N60%10000m1019hPa53%
24-Feb-2024 21:00Clear Sky7°C4 mph, NW6%10000m1018hPa45%
25-Feb-2024 00:00Clear Sky4°C2 mph, SW5%10000m1019hPa58%
25-Feb-2024 03:00Broken Clouds3°C7 mph, S67%10000m1019hPa70%
25-Feb-2024 06:00Scattered Clouds2°C9 mph, S34%10000m1019hPa82%
25-Feb-2024 09:00Clear Sky2°C11 mph, S0%10000m1017hPa84%
25-Feb-2024 12:00Clear Sky3°C13 mph, S1%10000m1015hPa86%
25-Feb-2024 15:00Overcast Clouds7°C16 mph, S91%10000m1014hPa73%
25-Feb-2024 18:00Broken Clouds14°C20 mph, SW61%10000m1012hPa55%
25-Feb-2024 21:00Few Clouds16°C18 mph, SW19%10000m1010hPa61%
26-Feb-2024 00:00Light Rain13°C11 mph, SW53%10000m1011hPa79%